Time;durP1;ratioP1;P1;durP2;ratioP2;P2;SDS_P1;SDS_P2;PMS_P1;PMS_P2;Temp;Humidity;BMP_temperature;BMP_pressure;BME280_temperature;BME280_humidity;BME280_pressure;Samples;Min_cycle;Max_cycle;Signal;HPM_P1;HPM_P2
2023/09/16 00:00:06;;;;;;;6.15;5.38;;;17.80;99.90;;;;;;5012934;28;20213;-79
2023/09/16 00:02:34;;;;;;;6.43;5.72;;;17.80;99.90;;;;;;5032474;28;20195;-78
2023/09/16 00:05:04;;;;;;;7.72;5.90;;;17.70;99.90;;;;;;5010109;28;20225;-79
2023/09/16 00:07:32;;;;;;;7.18;6.47;;;17.80;99.90;;;;;;5029556;28;20187;-79
2023/09/16 00:09:59;;;;;;;7.43;6.10;;;17.70;99.90;;;;;;5031488;28;20214;-79
2023/09/16 00:12:28;;;;;;;6.55;5.78;;;17.40;99.90;;;;;;5013754;28;20207;-79
2023/09/16 00:14:56;;;;;;;6.25;5.57;;;17.30;99.90;;;;;;5025011;28;20233;-78
2023/09/16 00:17:23;;;;;;;6.00;5.32;;;17.20;99.90;;;;;;5046427;28;20194;-78
2023/09/16 00:19:53;;;;;;;6.22;5.28;;;17.10;99.90;;;;;;5066180;28;20225;-79
2023/09/16 00:22:21;;;;;;;6.40;5.68;;;17.20;99.90;;;;;;5035050;28;20194;-79
2023/09/16 00:24:48;;;;;;;6.60;5.90;;;17.00;99.90;;;;;;5029760;28;20230;-78
2023/09/16 00:27:19;;;;;;;6.13;5.53;;;17.10;99.90;;;;;;5028167;28;20195;-78
2023/09/16 00:29:48;;;;;;;7.55;5.70;;;17.10;99.90;;;;;;5055675;28;20205;-78
2023/09/16 00:32:15;;;;;;;7.03;6.32;;;17.00;99.90;;;;;;5032302;28;20202;-78
2023/09/16 00:34:43;;;;;;;5.68;4.63;;;17.00;99.90;;;;;;5029804;28;20227;-79
2023/09/16 00:37:10;;;;;;;6.03;5.28;;;16.90;99.90;;;;;;5028111;28;20203;-79
2023/09/16 00:39:38;;;;;;;5.57;5.13;;;17.00;99.90;;;;;;5027838;28;20241;-78
2023/09/16 00:42:06;;;;;;;7.07;5.63;;;17.00;99.90;;;;;;5010571;28;20697;-79
2023/09/16 00:44:33;;;;;;;6.07;5.47;;;17.00;99.90;;;;;;5024522;28;20214;-79
2023/09/16 00:47:02;;;;;;;6.25;5.65;;;17.20;99.90;;;;;;5019963;28;20220;-78
2023/09/16 00:49:30;;;;;;;7.75;5.88;;;17.30;99.90;;;;;;5024829;28;20197;-79
2023/09/16 00:51:58;;;;;;;6.55;5.68;;;17.40;99.90;;;;;;5029941;28;20575;-79
2023/09/16 00:54:26;;;;;;;6.55;5.72;;;17.30;99.90;;;;;;5043049;28;20214;-78
2023/09/16 00:56:55;;;;;;;5.78;5.18;;;17.30;99.90;;;;;;5011605;28;20206;-78
2023/09/16 00:59:23;;;;;;;6.47;5.07;;;17.20;99.90;;;;;;5018143;28;20215;-78
2023/09/16 01:01:51;;;;;;;6.88;5.57;;;17.40;99.90;;;;;;5017956;28;20198;-79
2023/09/16 01:04:21;;;;;;;5.38;4.88;;;17.50;99.90;;;;;;5026036;28;20218;-79
2023/09/16 01:06:50;;;;;;;6.75;6.05;;;17.70;99.90;;;;;;5022322;28;20679;-78
2023/09/16 01:09:20;;;;;;;5.85;5.25;;;17.80;99.90;;;;;;5032009;28;20199;-79
2023/09/16 01:11:48;;;;;;;7.40;5.72;;;17.70;99.90;;;;;;5060856;28;20213;-78
2023/09/16 01:14:16;;;;;;;7.05;5.38;;;17.70;99.90;;;;;;5031093;28;20313;-78
2023/09/16 01:16:47;;;;;;;7.63;5.20;;;17.60;99.90;;;;;;5028450;28;20207;-79
2023/09/16 01:19:29;;;;;;;6.75;5.88;;;17.60;99.90;;;;;;5018610;28;20592;-79
2023/09/16 01:21:58;;;;;;;6.50;5.80;;;17.60;99.90;;;;;;5052330;28;20201;-79
2023/09/16 01:24:26;;;;;;;6.20;5.20;;;17.70;99.90;;;;;;5023565;28;20214;-79
2023/09/16 01:26:55;;;;;;;6.95;5.53;;;17.80;99.90;;;;;;5025931;28;20203;-79
2023/09/16 01:29:23;;;;;;;5.55;4.80;;;17.80;99.90;;;;;;5024885;28;20557;-79
2023/09/16 01:31:50;;;;;;;5.50;4.97;;;17.90;99.90;;;;;;5032617;28;20206;-79
2023/09/16 01:34:25;;;;;;;6.80;5.50;;;17.90;99.90;;;;;;5005840;28;20704;-79
2023/09/16 01:36:54;;;;;;;5.80;5.18;;;17.90;99.90;;;;;;5038730;28;20244;-78
2023/09/16 01:39:23;;;;;;;7.15;5.72;;;17.90;99.90;;;;;;5018281;28;20218;-79
2023/09/16 01:41:52;;;;;;;5.70;5.20;;;17.90;99.90;;;;;;5019195;28;20211;-78
2023/09/16 01:44:21;;;;;;;7.22;5.68;;;17.90;99.90;;;;;;5027017;28;20226;-78
2023/09/16 01:46:48;;;;;;;5.80;5.20;;;17.80;99.90;;;;;;5044002;28;20198;-79
2023/09/16 01:49:16;;;;;;;6.65;5.35;;;17.90;99.90;;;;;;5018302;28;20526;-78
2023/09/16 01:51:43;;;;;;;6.47;5.78;;;17.90;99.90;;;;;;5022580;28;20213;-78
2023/09/16 01:54:10;;;;;;;8.23;5.60;;;17.80;99.90;;;;;;5024141;28;20221;-78
2023/09/16 01:56:38;;;;;;;6.28;5.40;;;17.70;99.90;;;;;;5030504;28;20202;-78
2023/09/16 01:59:05;;;;;;;6.97;5.30;;;17.80;99.90;;;;;;5034128;28;20218;-79
2023/09/16 02:01:34;;;;;;;5.55;4.78;;;17.70;99.90;;;;;;5042928;28;20201;-78
2023/09/16 02:04:02;;;;;;;6.05;5.45;;;17.70;99.90;;;;;;5026270;28;20583;-78
2023/09/16 02:06:29;;;;;;;6.45;5.45;;;17.70;99.90;;;;;;5032806;28;20198;-78
2023/09/16 02:08:59;;;;;;;7.10;5.85;;;17.70;99.90;;;;;;5032074;28;20185;-79
2023/09/16 02:11:26;;;;;;;7.28;5.88;;;17.70;99.90;;;;;;5023232;28;20222;-78
2023/09/16 02:13:54;;;;;;;6.90;5.03;;;17.70;99.90;;;;;;5027690;28;20227;-78
2023/09/16 02:16:21;;;;;;;7.15;5.00;;;17.70;99.90;;;;;;5043785;28;20670;-79
2023/09/16 02:18:50;;;;;;;5.88;5.30;;;17.70;99.90;;;;;;5037852;28;20217;-79
2023/09/16 02:21:19;;;;;;;6.03;5.03;;;17.80;99.90;;;;;;5033065;28;20195;-78
2023/09/16 02:23:46;;;;;;;6.30;5.25;;;17.90;99.90;;;;;;5034610;28;20226;-79
2023/09/16 02:26:13;;;;;;;5.88;5.25;;;17.80;99.90;;;;;;5030084;28;20201;-78
2023/09/16 02:28:42;;;;;;;5.88;5.35;;;17.80;99.90;;;;;;5025770;28;20671;-79
2023/09/16 02:31:10;;;;;;;5.32;4.82;;;17.80;99.90;;;;;;5029446;28;20210;-78
2023/09/16 02:33:38;;;;;;;5.95;5.45;;;17.70;99.90;;;;;;5031242;28;20219;-78
2023/09/16 02:36:07;;;;;;;6.82;5.32;;;17.70;99.90;;;;;;5036670;28;20205;-79
2023/09/16 02:38:34;;;;;;;5.60;5.10;;;17.80;99.90;;;;;;5030875;28;20202;-79
2023/09/16 02:41:04;;;;;;;6.25;5.25;;;17.80;99.90;;;;;;5048388;28;20218;-79
2023/09/16 02:43:33;;;;;;;5.93;5.32;;;17.90;99.90;;;;;;5034868;28;20214;-78
2023/09/16 02:46:01;;;;;;;5.75;5.18;;;17.90;99.90;;;;;;5062120;28;20198;-78
2023/09/16 02:48:29;;;;;;;6.97;4.97;;;17.80;99.90;;;;;;5035131;28;20680;-79
2023/09/16 02:50:56;;;;;;;6.68;5.10;;;17.80;99.90;;;;;;5030361;28;20191;-78
2023/09/16 02:53:25;;;;;;;6.60;4.97;;;17.80;99.90;;;;;;5044141;28;20691;-78
2023/09/16 02:55:55;;;;;;;6.47;5.60;;;17.90;99.90;;;;;;5039388;28;20205;-78
2023/09/16 02:58:23;;;;;;;5.60;5.07;;;17.80;99.90;;;;;;5025551;28;20207;-78
2023/09/16 03:00:50;;;;;;;5.57;4.80;;;17.80;99.90;;;;;;5025307;28;20590;-78
2023/09/16 03:03:18;;;;;;;7.40;5.40;;;17.60;99.90;;;;;;5043512;28;20194;-78
2023/09/16 03:05:47;;;;;;;5.55;5.00;;;17.50;99.90;;;;;;5033496;28;20202;-78
2023/09/16 03:08:17;;;;;;;5.95;5.10;;;17.50;99.90;;;;;;5033049;28;20209;-79
2023/09/16 03:10:46;;;;;;;6.43;5.68;;;17.50;99.90;;;;;;5028921;28;20195;-79
2023/09/16 03:13:13;;;;;;;6.28;5.53;;;17.40;99.90;;;;;;5020364;28;20218;-78
2023/09/16 03:15:45;;;;;;;8.50;5.53;;;17.40;99.90;;;;;;5030338;28;20209;-78
2023/09/16 03:18:12;;;;;;;7.13;5.75;;;17.30;99.90;;;;;;5052785;22;20198;-78
2023/09/16 03:20:42;;;;;;;6.20;5.60;;;17.30;99.90;;;;;;5063766;28;20509;-78
2023/09/16 03:23:12;;;;;;;5.97;4.82;;;17.30;99.90;;;;;;5052170;28;20190;-78
2023/09/16 03:25:39;;;;;;;6.18;5.57;;;17.20;99.90;;;;;;5038252;28;20206;-78
2023/09/16 03:28:13;;;;;;;6.25;5.65;;;17.30;99.90;;;;;;5036755;28;20658;-78
2023/09/16 03:30:40;;;;;;;6.22;5.63;;;17.30;99.90;;;;;;5045019;28;20193;-78
2023/09/16 03:33:09;;;;;;;6.38;5.78;;;17.30;99.90;;;;;;5041797;28;20197;-78
2023/09/16 03:35:38;;;;;;;6.57;5.30;;;17.10;99.90;;;;;;5040741;28;20199;-78
2023/09/16 03:38:06;;;;;;;7.65;5.90;;;17.20;99.90;;;;;;5050715;28;20213;-77
2023/09/16 03:40:33;;;;;;;8.18;5.25;;;17.20;99.90;;;;;;5048039;28;20205;-77
2023/09/16 03:43:00;;;;;;;6.00;5.43;;;17.20;99.90;;;;;;5038749;28;20201;-77
2023/09/16 03:45:54;;;;;;;6.82;6.13;;;17.10;99.90;;;;;;5048418;28;20205;-77
2023/09/16 03:48:23;;;;;;;6.20;4.93;;;17.00;99.90;;;;;;5041058;28;20221;-77
2023/09/16 03:50:51;;;;;;;7.10;5.88;;;17.00;99.90;;;;;;5046180;28;20193;-77
2023/09/16 03:53:25;;;;;;;6.28;5.13;;;17.00;99.90;;;;;;5036694;28;20213;-77
2023/09/16 03:55:53;;;;;;;6.15;5.65;;;17.00;99.90;;;;;;5050270;28;20531;-77
2023/09/16 03:58:21;;;;;;;6.78;5.35;;;17.10;99.90;;;;;;5045697;28;20221;-77
2023/09/16 04:00:48;;;;;;;6.47;5.78;;;17.10;99.90;;;;;;5041135;28;20217;-77
2023/09/16 04:03:17;;;;;;;6.72;5.47;;;17.20;99.90;;;;;;5043077;28;20198;-77
2023/09/16 04:05:44;;;;;;;6.75;5.80;;;17.20;99.90;;;;;;5057455;28;20547;-77
2023/09/16 04:08:12;;;;;;;7.75;6.10;;;17.10;99.90;;;;;;5043501;28;20193;-77
2023/09/16 04:10:39;;;;;;;7.13;5.65;;;17.00;99.90;;;;;;5049218;28;20213;-77
2023/09/16 04:13:06;;;;;;;7.63;5.43;;;17.10;99.90;;;;;;5039838;28;20564;-77
2023/09/16 04:15:34;;;;;;;9.43;5.53;;;17.10;99.90;;;;;;5058816;28;20568;-77
2023/09/16 04:18:01;;;;;;;6.90;5.40;;;17.20;99.90;;;;;;5046887;28;20782;-77
2023/09/16 04:20:30;;;;;;;10.40;5.97;;;17.30;99.90;;;;;;5034235;28;20205;-77
2023/09/16 04:23:21;;;;;;;6.50;5.90;;;17.30;99.90;;;;;;5042389;28;20206;-77
2023/09/16 04:25:54;;;;;;;6.00;5.30;;;17.30;99.90;;;;;;5047125;28;20564;-77
2023/09/16 04:28:22;;;;;;;6.63;5.50;;;17.30;99.90;;;;;;5046406;28;20328;-77
2023/09/16 04:30:50;;;;;;;6.20;5.50;;;17.10;99.90;;;;;;5043767;28;20185;-77
2023/09/16 04:33:20;;;;;;;6.00;5.50;;;17.10;99.90;;;;;;5047798;28;20201;-77
2023/09/16 04:35:50;;;;;;;6.28;5.55;;;17.10;99.90;;;;;;5046594;28;20201;-77
2023/09/16 04:38:19;;;;;;;5.97;5.30;;;17.10;99.90;;;;;;5063800;28;20194;-77
2023/09/16 04:40:47;;;;;;;6.28;5.32;;;17.10;99.90;;;;;;5047005;28;20214;-77
2023/09/16 04:43:15;;;;;;;6.47;5.88;;;17.10;99.90;;;;;;5047621;28;20208;-77
2023/09/16 04:45:44;;;;;;;6.78;5.63;;;17.20;99.90;;;;;;5042410;28;20647;-77
2023/09/16 04:48:13;;;;;;;8.13;5.82;;;17.10;99.90;;;;;;5052223;28;20205;-77
2023/09/16 04:50:45;;;;;;;6.72;5.82;;;17.00;99.90;;;;;;5043066;28;20186;-77
2023/09/16 04:53:14;;;;;;;6.85;5.90;;;17.00;99.90;;;;;;5051131;28;20202;-78
2023/09/16 04:55:43;;;;;;;6.68;5.93;;;17.00;99.90;;;;;;5046309;28;20224;-78
2023/09/16 04:58:11;;;;;;;6.65;5.72;;;17.10;99.90;;;;;;5044900;28;20204;-78
2023/09/16 05:00:38;;;;;;;8.00;5.90;;;17.10;99.90;;;;;;5041731;28;20221;-78
2023/09/16 05:03:08;;;;;;;6.90;5.50;;;17.00;99.90;;;;;;5044082;28;20205;-78
2023/09/16 05:05:39;;;;;;;6.80;6.20;;;17.00;99.90;;;;;;5049257;28;20205;-78
2023/09/16 05:08:08;;;;;;;6.57;5.80;;;17.10;99.90;;;;;;5045224;28;20202;-78
2023/09/16 05:10:36;;;;;;;8.07;6.63;;;17.10;99.90;;;;;;5045820;28;20210;-79
2023/09/16 05:13:05;;;;;;;7.47;5.60;;;17.00;99.90;;;;;;5039861;28;20676;-78
2023/09/16 05:15:33;;;;;;;6.55;5.65;;;16.80;99.90;;;;;;5048692;28;20648;-78
2023/09/16 05:18:00;;;;;;;7.78;6.20;;;16.80;99.90;;;;;;5040894;28;20194;-78
2023/09/16 05:20:28;;;;;;;8.10;5.93;;;16.80;99.90;;;;;;5054827;28;20230;-78
2023/09/16 05:22:56;;;;;;;6.72;5.78;;;16.90;99.90;;;;;;5044501;28;20198;-78
2023/09/16 05:25:26;;;;;;;6.43;5.70;;;16.80;99.90;;;;;;5041514;28;20225;-78
2023/09/16 05:27:55;;;;;;;7.32;5.55;;;16.70;99.90;;;;;;5051806;28;20661;-78
2023/09/16 05:30:22;;;;;;;9.55;6.10;;;16.70;99.90;;;;;;5049109;28;20214;-78
2023/09/16 05:32:56;;;;;;;6.45;5.63;;;16.80;99.90;;;;;;5067140;28;20198;-78
2023/09/16 05:35:24;;;;;;;8.25;5.88;;;16.90;99.90;;;;;;5045064;28;20190;-78
2023/09/16 05:37:54;;;;;;;8.27;6.28;;;16.80;99.90;;;;;;5051449;28;20205;-78
2023/09/16 05:40:29;;;;;;;6.82;6.18;;;16.80;99.90;;;;;;5064862;28;20210;-78
2023/09/16 05:42:58;;;;;;;6.50;5.85;;;16.80;99.90;;;;;;5043574;28;20201;-78
2023/09/16 05:45:26;;;;;;;6.00;5.40;;;16.90;99.90;;;;;;5044316;28;20285;-77
2023/09/16 05:47:55;;;;;;;7.00;5.97;;;17.50;99.90;;;;;;5038355;28;20594;-78
2023/09/16 05:50:22;;;;;;;10.50;6.00;;;17.20;99.90;;;;;;5043136;28;20221;-78
2023/09/16 05:52:50;;;;;;;8.70;5.55;;;17.30;99.90;;;;;;5047190;28;20551;-78
2023/09/16 05:55:21;;;;;;;7.63;5.53;;;17.40;99.90;;;;;;5042736;28;20190;-78
2023/09/16 05:57:50;;;;;;;7.95;5.28;;;17.60;99.90;;;;;;5043545;28;20201;-78
2023/09/16 06:00:20;;;;;;;5.88;5.30;;;18.00;99.90;;;;;;5048799;28;20240;-78
2023/09/16 06:02:50;;;;;;;6.47;5.63;;;17.50;99.90;;;;;;5043676;28;20190;-78
2023/09/16 06:05:17;;;;;;;5.57;4.93;;;17.30;99.90;;;;;;5037864;28;20198;-78
2023/09/16 06:07:46;;;;;;;5.78;4.93;;;17.30;99.90;;;;;;5048008;28;20207;-78
2023/09/16 06:10:13;;;;;;;6.30;5.70;;;17.50;99.90;;;;;;5054785;28;20221;-78
2023/09/16 06:12:41;;;;;;;6.30;5.15;;;17.30;99.90;;;;;;5046490;28;20194;-78
2023/09/16 06:15:09;;;;;;;7.38;5.80;;;17.30;99.90;;;;;;5043014;28;20208;-78
2023/09/16 06:17:39;;;;;;;6.40;5.10;;;17.60;99.90;;;;;;5047607;28;20198;-78
2023/09/16 06:20:08;;;;;;;5.85;5.25;;;17.50;99.90;;;;;;5041049;28;20683;-78
2023/09/16 06:22:36;;;;;;;6.25;4.90;;;17.80;99.90;;;;;;5067949;28;20217;-78
2023/09/16 06:25:04;;;;;;;7.10;4.80;;;18.30;99.90;;;;;;5069017;28;20194;-78
2023/09/16 06:27:32;;;;;;;5.15;4.65;;;18.50;99.90;;;;;;5041656;28;20225;-78
2023/09/16 06:30:00;;;;;;;6.93;5.10;;;18.80;99.90;;;;;;5044609;28;20218;-78
2023/09/16 06:32:27;;;;;;;4.97;4.53;;;18.90;99.90;;;;;;5043773;28;20194;-78
2023/09/16 06:34:58;;;;;;;7.80;5.53;;;19.00;99.90;;;;;;5044996;28;20585;-78
2023/09/16 06:37:25;;;;;;;6.18;5.60;;;19.00;99.90;;;;;;5047001;28;20199;-78
2023/09/16 06:39:53;;;;;;;6.38;5.18;;;19.00;99.90;;;;;;5044921;28;20691;-79
2023/09/16 06:42:22;;;;;;;7.18;4.90;;;18.60;99.90;;;;;;5052143;28;20222;-79
2023/09/16 06:44:54;;;;;;;7.90;5.60;;;18.70;99.90;;;;;;5043422;28;20276;-78
2023/09/16 06:47:26;;;;;;;5.47;4.75;;;18.70;99.90;;;;;;5046083;28;20206;-79
2023/09/16 06:49:55;;;;;;;5.72;4.93;;;18.90;99.90;;;;;;5038043;28;20225;-78
2023/09/16 06:52:26;;;;;;;7.43;5.38;;;19.00;99.90;;;;;;5062926;28;20194;-79
2023/09/16 06:54:54;;;;;;;8.82;5.43;;;19.00;99.90;;;;;;5044378;28;20194;-80
2023/09/16 06:57:21;;;;;;;7.22;5.53;;;19.10;99.90;;;;;;5051196;28;20194;-79
2023/09/16 06:59:49;;;;;;;8.27;5.68;;;19.00;99.90;;;;;;5063548;28;20217;-77
2023/09/16 07:02:17;;;;;;;39.08;15.88;;;19.00;99.90;;;;;;5053071;28;20222;-78
2023/09/16 07:04:45;;;;;;;11.82;6.53;;;19.20;99.90;;;;;;5047677;28;20197;-79
2023/09/16 07:07:13;;;;;;;16.65;8.82;;;19.10;99.90;;;;;;5052548;28;20201;-78
2023/09/16 07:09:42;;;;;;;8.95;5.90;;;18.80;99.90;;;;;;5044175;28;20573;-79
2023/09/16 07:12:10;;;;;;;7.65;6.03;;;18.80;99.90;;;;;;5052872;28;20190;-78
2023/09/16 07:14:38;;;;;;;13.98;7.45;;;18.90;99.90;;;;;;5047683;28;20208;-78
2023/09/16 07:17:16;;;;;;;12.88;7.57;;;19.20;99.90;;;;;;5045264;28;20201;-78
2023/09/16 07:19:44;;;;;;;14.40;7.18;;;19.40;99.90;;;;;;5044795;28;20225;-78
2023/09/16 07:22:11;;;;;;;7.65;5.50;;;19.40;99.90;;;;;;5044925;28;20558;-77
2023/09/16 07:24:39;;;;;;;8.55;5.65;;;19.30;99.90;;;;;;5041998;28;20213;-78
2023/09/16 07:27:07;;;;;;;6.80;6.10;;;19.30;99.90;;;;;;5043733;28;20217;-78
2023/09/16 07:29:35;;;;;;;6.45;5.60;;;19.10;99.90;;;;;;5040805;28;20226;-78
2023/09/16 07:32:02;;;;;;;8.35;5.63;;;19.00;99.90;;;;;;5065732;28;20201;-78
2023/09/16 07:34:30;;;;;;;9.18;6.32;;;19.20;99.90;;;;;;5042713;28;20202;-78
2023/09/16 07:37:01;;;;;;;10.43;5.85;;;19.30;99.90;;;;;;5042250;28;20208;-78
2023/09/16 07:39:29;;;;;;;6.30;4.80;;;19.20;99.90;;;;;;5067073;28;20577;-78
2023/09/16 07:41:56;;;;;;;9.32;6.28;;;19.20;99.90;;;;;;5050730;28;20215;-77
2023/09/16 07:44:26;;;;;;;8.15;6.60;;;19.40;99.90;;;;;;5046501;28;20197;-78
2023/09/16 07:47:03;;;;;;;7.95;5.95;;;19.40;99.90;;;;;;5050871;28;20217;-79
2023/09/16 07:49:30;;;;;;;8.88;5.50;;;19.50;99.90;;;;;;5059004;28;20229;-78
2023/09/16 07:52:09;;;;;;;5.95;5.13;;;19.50;99.90;;;;;;5062676;28;20209;-78
2023/09/16 07:54:36;;;;;;;8.18;5.13;;;19.70;99.90;;;;;;5062125;28;20198;-77
2023/09/16 07:57:06;;;;;;;6.75;5.07;;;19.80;99.90;;;;;;5048651;28;20202;-78
2023/09/16 07:59:34;;;;;;;5.28;4.70;;;19.80;99.90;;;;;;5051502;28;20225;-77
2023/09/16 08:02:02;;;;;;;5.32;4.80;;;19.70;99.90;;;;;;5044293;28;20224;-77
2023/09/16 08:04:31;;;;;;;5.30;4.80;;;19.80;99.90;;;;;;5047844;28;20205;-77
2023/09/16 08:07:04;;;;;;;5.68;4.20;;;19.90;99.90;;;;;;5050827;28;20374;-78
2023/09/16 08:09:32;;;;;;;4.45;4.05;;;19.80;99.90;;;;;;5052486;28;20676;-77
2023/09/16 08:12:00;;;;;;;5.25;4.40;;;20.00;99.90;;;;;;5049106;28;20208;-77
2023/09/16 08:14:27;;;;;;;6.40;4.78;;;20.10;99.90;;;;;;5041661;28;20194;-77
2023/09/16 08:16:58;;;;;;;5.07;4.47;;;20.20;99.90;;;;;;5047984;28;20201;-77
2023/09/16 08:19:25;;;;;;;6.32;4.28;;;20.20;99.90;;;;;;5047093;28;20222;-77
2023/09/16 08:21:53;;;;;;;5.60;4.15;;;20.30;99.90;;;;;;5047811;28;20680;-78
2023/09/16 08:24:20;;;;;;;6.95;5.82;;;20.30;99.90;;;;;;5043782;28;20198;-78
2023/09/16 08:26:47;;;;;;;4.90;4.28;;;20.50;99.90;;;;;;5051119;28;20212;-78
2023/09/16 08:29:15;;;;;;;5.65;4.13;;;20.50;99.90;;;;;;5046539;28;20293;-78
2023/09/16 08:31:42;;;;;;;4.63;4.07;;;20.50;99.90;;;;;;5049079;28;20207;-78
2023/09/16 08:34:30;;;;;;;5.13;3.90;;;20.60;99.90;;;;;;5050877;28;20659;-78
2023/09/16 08:36:57;;;;;;;5.50;3.80;;;20.80;99.90;;;;;;5048652;28;20202;-78
2023/09/16 08:39:25;;;;;;;6.50;4.57;;;20.80;99.90;;;;;;5049538;28;20332;-77
2023/09/16 08:41:58;;;;;;;5.90;4.43;;;20.90;99.90;;;;;;5040821;28;20198;-78
2023/09/16 08:44:28;;;;;;;4.88;4.45;;;21.00;99.90;;;;;;5047816;28;20284;-78
2023/09/16 08:47:01;;;;;;;5.30;4.28;;;20.90;99.90;;;;;;5047352;28;20206;-78
2023/09/16 08:49:49;;;;;;;4.78;4.38;;;21.10;99.90;;;;;;5059046;28;20220;-77
2023/09/16 08:52:26;;;;;;;4.57;4.13;;;21.20;99.90;;;;;;5055635;28;20193;-77
2023/09/16 08:54:56;;;;;;;6.57;3.95;;;21.20;99.90;;;;;;5047610;28;20211;-77
2023/09/16 08:57:24;;;;;;;4.85;4.40;;;21.20;99.90;;;;;;5060613;28;20197;-78
2023/09/16 08:59:53;;;;;;;4.63;4.13;;;21.20;99.90;;;;;;5052413;28;20709;-78
2023/09/16 09:02:21;;;;;;;4.50;4.10;;;21.30;99.90;;;;;;5041335;28;20695;-77
2023/09/16 09:04:51;;;;;;;5.63;4.63;;;21.30;99.90;;;;;;5047453;28;20197;-78
2023/09/16 09:07:24;;;;;;;7.18;6.47;;;21.50;99.90;;;;;;5065158;28;20197;-77
2023/09/16 09:09:51;;;;;;;7.50;6.60;;;21.60;99.90;;;;;;5040112;28;20225;-77
2023/09/16 09:12:19;;;;;;;8.70;7.82;;;21.60;99.90;;;;;;5053766;28;20205;-77
2023/09/16 09:14:48;;;;;;;6.95;6.07;;;21.60;99.90;;;;;;5039182;28;20553;-78
2023/09/16 09:17:16;;;;;;;6.03;5.53;;;21.80;99.90;;;;;;5043247;28;20691;-77
2023/09/16 09:19:45;;;;;;;5.57;5.07;;;21.80;99.90;;;;;;5046986;28;20229;-78
2023/09/16 09:22:14;;;;;;;6.53;5.07;;;21.80;99.90;;;;;;5062595;28;20277;-78
2023/09/16 09:24:44;;;;;;;6.53;5.03;;;21.80;99.90;;;;;;5042038;28;20207;-78
2023/09/16 09:27:12;;;;;;;5.75;5.25;;;21.90;99.90;;;;;;5048520;28;20635;-78
2023/09/16 09:29:48;;;;;;;4.68;4.10;;;22.00;99.90;;;;;;5050972;28;20590;-79
2023/09/16 09:32:16;;;;;;;5.22;4.72;;;22.10;99.90;;;;;;5049019;28;20675;-78
2023/09/16 09:34:43;;;;;;;6.50;5.32;;;22.20;99.90;;;;;;5050106;28;20205;-79
2023/09/16 09:37:16;;;;;;;5.25;4.78;;;22.30;99.90;;;;;;5041619;28;20656;-78
2023/09/16 09:39:45;;;;;;;5.75;5.25;;;22.30;99.90;;;;;;5040333;28;20222;-79
2023/09/16 09:42:20;;;;;;;4.72;4.30;;;22.40;99.90;;;;;;5048040;28;20197;-78
2023/09/16 09:44:47;;;;;;;5.78;4.53;;;22.40;99.90;;;;;;5041425;28;20201;-80
2023/09/16 09:47:15;;;;;;;6.10;4.22;;;22.40;99.90;;;;;;5071302;28;20202;-79
2023/09/16 09:49:55;;;;;;;;;;;;;;;;;;;;;
2023/09/16 09:53:06;;;;;;;6.10;5.50;;;22.70;99.90;;;;;;5052789;28;20183;-80
2023/09/16 09:55:52;;;;;;;;;;;;;;;;;;;;;
2023/09/16 09:58:24;;;;;;;9.75;6.15;;;22.80;99.90;;;;;;4995467;28;20196;-80
2023/09/16 10:00:52;;;;;;;8.70;5.95;;;23.00;99.90;;;;;;5008185;28;20738;-79
2023/09/16 10:03:22;;;;;;;8.63;6.15;;;23.00;99.90;;;;;;5052021;28;20210;-79
2023/09/16 10:05:50;;;;;;;8.48;5.90;;;23.20;99.90;;;;;;5046391;28;20202;-81
2023/09/16 10:08:18;;;;;;;5.70;5.13;;;23.10;99.90;;;;;;5055577;28;20212;-79
2023/09/16 10:10:50;;;;;;;7.63;5.53;;;23.30;99.90;;;;;;5050685;28;20193;-79
2023/09/16 10:13:17;;;;;;;5.78;5.15;;;23.20;99.90;;;;;;5072222;28;20193;-79
2023/09/16 10:15:45;;;;;;;6.07;4.88;;;23.30;99.90;;;;;;5052024;28;20201;-79
2023/09/16 10:18:13;;;;;;;7.32;5.05;;;23.50;99.90;;;;;;5048452;28;20204;-77
2023/09/16 10:20:44;;;;;;;5.25;4.75;;;23.70;99.90;;;;;;5044880;28;20668;-77
2023/09/16 10:23:12;;;;;;;6.32;5.82;;;23.80;99.90;;;;;;5047676;28;20210;-77
2023/09/16 10:25:40;;;;;;;5.80;5.20;;;23.80;99.90;;;;;;5063559;28;20264;-77
2023/09/16 10:28:13;;;;;;;5.95;5.45;;;23.90;99.90;;;;;;5069860;28;20197;-78
2023/09/16 10:30:41;;;;;;;5.32;4.82;;;24.00;99.90;;;;;;5054361;28;20201;-78
2023/09/16 10:33:10;;;;;;;7.57;5.63;;;24.10;99.90;;;;;;5039345;28;20198;-78
2023/09/16 10:35:39;;;;;;;5.55;5.05;;;24.20;99.90;;;;;;5048182;28;20202;-78
2023/09/16 10:38:09;;;;;;;7.43;5.60;;;24.30;99.90;;;;;;5049149;28;20839;-78
2023/09/16 10:40:37;;;;;;;5.45;4.95;;;24.30;99.90;;;;;;5055016;28;20539;-78
2023/09/16 10:43:06;;;;;;;5.40;4.68;;;23.90;99.90;;;;;;5045460;28;20217;-78
2023/09/16 10:45:35;;;;;;;6.00;5.50;;;23.80;99.90;;;;;;5038556;28;20194;-78
2023/09/16 10:48:02;;;;;;;7.78;5.88;;;24.00;99.90;;;;;;5054404;28;20213;-78
2023/09/16 10:50:36;;;;;;;5.60;5.10;;;24.20;99.90;;;;;;5066621;28;20222;-78
2023/09/16 10:53:06;;;;;;;6.15;5.47;;;24.10;99.90;;;;;;5050142;28;20202;-77
2023/09/16 10:55:39;;;;;;;6.72;5.78;;;24.20;99.90;;;;;;5054900;28;20208;-78
2023/09/16 10:58:13;;;;;;;6.68;5.80;;;24.40;99.90;;;;;;5051779;28;20209;-77
2023/09/16 11:00:50;;;;;;;6.32;5.75;;;24.40;99.90;;;;;;5043999;28;20213;-77
2023/09/16 11:03:19;;;;;;;6.43;5.57;;;24.80;99.90;;;;;;5044154;28;20222;-78
2023/09/16 11:05:47;;;;;;;7.13;5.10;;;24.90;99.90;;;;;;5048511;28;20201;-78
2023/09/16 11:08:15;;;;;;;6.28;5.68;;;25.20;99.90;;;;;;5048644;28;20287;-78
2023/09/16 11:10:43;;;;;;;6.78;6.15;;;25.10;99.90;;;;;;5049349;28;20199;-79
2023/09/16 11:13:11;;;;;;;6.68;6.07;;;25.10;99.90;;;;;;5049579;28;20580;-80
2023/09/16 11:15:46;;;;;;;6.15;5.55;;;25.10;99.90;;;;;;5052117;28;20190;-80
2023/09/16 11:18:16;;;;;;;5.72;5.20;;;25.30;99.90;;;;;;5049006;28;20244;-80
2023/09/16 11:20:45;;;;;;;7.20;6.60;;;25.50;99.90;;;;;;5048749;28;20232;-80
2023/09/16 11:23:13;;;;;;;6.68;6.07;;;25.50;99.90;;;;;;5048395;28;20205;-80
2023/09/16 11:25:42;;;;;;;6.22;5.68;;;25.40;99.90;;;;;;5057162;28;20198;-80
2023/09/16 11:28:10;;;;;;;6.32;5.82;;;25.70;99.90;;;;;;5069840;28;20196;-80
2023/09/16 11:30:38;;;;;;;6.50;5.90;;;25.90;99.90;;;;;;5048023;28;20680;-80
2023/09/16 11:33:30;;;;;;;6.53;5.55;;;26.00;99.90;;;;;;5050656;28;20198;-80
2023/09/16 11:36:08;;;;;;;6.50;5.80;;;26.00;99.90;;;;;;5050753;28;20209;-80
2023/09/16 11:38:36;;;;;;;5.82;5.22;;;26.00;99.90;;;;;;5050170;28;20580;-80
2023/09/16 11:41:10;;;;;;;7.20;6.50;;;26.30;99.90;;;;;;5049477;28;20221;-80
2023/09/16 11:43:38;;;;;;;6.25;5.63;;;25.90;99.90;;;;;;5056881;28;20229;-80
2023/09/16 11:46:06;;;;;;;6.40;5.80;;;25.80;99.90;;;;;;5048306;28;20205;-80
2023/09/16 11:48:48;;;;;;;5.70;5.15;;;26.20;99.90;;;;;;5056235;28;20220;-80
2023/09/16 11:51:17;;;;;;;7.07;5.45;;;26.40;99.90;;;;;;5050247;28;20204;-79
2023/09/16 11:53:45;;;;;;;6.40;5.80;;;26.50;99.90;;;;;;5049869;28;20193;-78
2023/09/16 11:56:13;;;;;;;6.80;6.20;;;26.70;99.90;;;;;;5044034;28;20542;-77
2023/09/16 11:58:42;;;;;;;5.78;5.28;;;26.80;99.90;;;;;;5046464;28;20589;-77
2023/09/16 12:01:12;;;;;;;6.13;5.45;;;26.80;99.90;;;;;;5039448;28;20671;-79
2023/09/16 12:03:42;;;;;;;5.68;5.18;;;27.20;99.90;;;;;;5049491;28;20221;-78
2023/09/16 12:06:11;;;;;;;6.20;5.68;;;27.30;99.90;;;;;;5057351;28;20205;-78
2023/09/16 12:08:44;;;;;;;5.93;5.43;;;27.40;99.90;;;;;;5048616;28;20221;-77
2023/09/16 12:11:11;;;;;;;6.53;5.88;;;27.60;99.90;;;;;;5055787;28;20221;-77
2023/09/16 12:13:40;;;;;;;5.82;5.15;;;27.60;99.90;;;;;;5061708;28;20194;-78
2023/09/16 12:16:09;;;;;;;6.10;5.20;;;27.90;99.90;;;;;;5040991;28;20198;-77
2023/09/16 12:18:37;;;;;;;5.80;5.20;;;27.90;99.90;;;;;;5050947;28;20674;-77
2023/09/16 12:21:06;;;;;;;6.38;5.78;;;28.10;99.70;;;;;;5045963;28;20207;-78
2023/09/16 12:23:34;;;;;;;6.00;5.47;;;27.30;99.90;;;;;;5054629;28;20194;-78
2023/09/16 12:26:02;;;;;;;5.85;5.22;;;27.00;99.90;;;;;;5038013;28;20578;-77
2023/09/16 12:28:32;;;;;;;6.03;5.50;;;27.30;99.90;;;;;;5038866;28;20210;-78
2023/09/16 12:30:59;;;;;;;6.05;5.55;;;27.50;99.90;;;;;;5057408;28;20202;-78
2023/09/16 12:33:39;;;;;;;5.95;5.18;;;27.60;99.90;;;;;;5050477;28;20197;-78
2023/09/16 12:36:08;;;;;;;6.20;5.38;;;27.90;99.90;;;;;;5042035;28;20227;-78
2023/09/16 12:38:38;;;;;;;5.75;5.35;;;28.30;99.50;;;;;;5051049;28;20217;-78
2023/09/16 12:41:06;;;;;;;6.07;5.57;;;28.50;99.10;;;;;;5067591;28;20554;-78
2023/09/16 12:43:34;;;;;;;6.18;5.57;;;28.40;98.60;;;;;;5072686;28;20190;-78
2023/09/16 12:46:04;;;;;;;6.28;5.78;;;28.20;99.30;;;;;;5055710;28;20214;-78
2023/09/16 12:48:32;;;;;;;6.15;5.63;;;28.40;98.80;;;;;;5079522;28;20719;-78
2023/09/16 12:51:00;;;;;;;5.85;5.35;;;28.80;98.20;;;;;;5048175;28;20209;-78
2023/09/16 12:53:29;;;;;;;6.35;5.75;;;28.60;97.70;;;;;;5053562;28;20190;-78
2023/09/16 12:55:57;;;;;;;5.72;5.22;;;29.10;96.90;;;;;;5051542;28;20194;-78
2023/09/16 12:58:24;;;;;;;6.18;5.60;;;29.20;97.60;;;;;;5044440;28;20214;-78